CYQB

Quebec / Jean Lesage International Airport

Quebec, , Canada
TAF CYQB 211739Z 2118/2218 28010KT P6SM FEW050 FM220000 VRB03KT P6SM SKC BECMG 2215/2217 24012KT RMK NXT FCST BY 220000Z
Issued Valid From Valid To
Jun-21 @ 17:39 UTC
(29 minutes ago)
Jun-21 @ 18:00 UTC
(8 minutes ago)
Jun-22 @ 18:00 UTC
(in 24 hours)
Jun-21 @ 18:00 to Jun-22 @ 00:00
TAF CYQB 211739Z 2118/2218 28010KT P6SM FEW050
Wind Visibility Clouds
280° at 10 knots Greater than 6 miles
  • Few at 5,000' AGL
From Jun-22 @ 00:00 to Jun-22 @ 15:00
FM220000 VRB03KT P6SM SKC
Wind Visibility Clouds
Variable at 3 knots Greater than 6 miles
  • Clear skies
Becoming Jun-22 @ 15:00 to Jun-22 @ 18:00
BECMG 2215/2217 24012KT RMK NXT FCST BY 220000Z
Wind Visibility Clouds
240° at 12 knots Greater than 6 miles
  • Clear skies
TAF CYQB 211739Z 2118/2218 28010KT P6SM FEW050 FM220000 VRB03KT P6SM SKC BECMG 2215/2217 24012KT RMK NXT FCST BY 220000Z
Issued Jun-21 @ 17:39 UTC
(29 minutes ago)
Valid From Jun-21 @ 18:00 UTC
(8 minutes ago)
Valid To Jun-22 @ 18:00 UTC
(in 24 hours)
Jun-21 @ 18:00 - Jun-22 @ 00:00
Wind Visibility
280° at 10 knots Greater than 6 miles
Clouds
  • Few at 5,000' AGL
From Jun-22 @ 00:00 - Jun-22 @ 15:00
Wind Visibility
Variable at 3 knots Greater than 6 miles
Clouds
  • Clear skies
Becoming Jun-22 @ 15:00 - Jun-22 @ 18:00
Wind Visibility
240° at 12 knots Greater than 6 miles
Clouds
  • Clear skies